Time;durP1;ratioP1;P1;durP2;ratioP2;P2;SDS_P1;SDS_P2;PMS_P1;PMS_P2;Temp;Humidity;BMP_temperature;BMP_pressure;BME280_temperature;BME280_humidity;BME280_pressure;Samples;Min_cycle;Max_cycle;Signal;HPM_P1;HPM_P2
2023/06/19 00:01:59;;;;;;;13.40;5.32;;;;;;;-144.73;58.58;54169.63;4969930;28;20492;-72
2023/06/19 00:04:26;;;;;;;6.93;5.45;;;;;;;-144.73;59.20;54210.66;4970720;28;20046;-71
2023/06/19 00:06:52;;;;;;;11.77;6.20;;;;;;;-144.73;59.54;54169.63;4971070;28;20053;-72
2023/06/19 00:09:18;;;;;;;13.43;5.95;;;;;;;-144.73;60.38;54198.34;4954464;28;20019;-71
2023/06/19 00:11:43;;;;;;;6.55;5.60;;;;;;;-144.73;59.42;54181.94;4953410;28;20039;-70
2023/06/19 00:14:08;;;;;;;7.88;6.20;;;;;;;-144.73;59.33;54190.13;4951461;28;20038;-71
2023/06/19 00:16:34;;;;;;;12.98;6.00;;;;;;;-144.73;59.75;54190.13;4952332;28;20535;-71
2023/06/19 00:18:59;;;;;;;9.77;6.32;;;;;;;-144.73;59.71;54194.25;4951774;28;20026;-71
2023/06/19 00:21:25;;;;;;;11.00;6.72;;;;;;;-144.73;59.96;54198.34;4953178;28;20038;-71
2023/06/19 00:23:52;;;;;;;13.45;5.97;;;;;;;-144.73;59.65;54161.41;4954453;28;20019;-71
2023/06/19 00:26:17;;;;;;;8.15;5.68;;;;;;;-144.73;60.76;54183.97;4953970;28;20057;-71
2023/06/19 00:28:45;;;;;;;9.70;6.18;;;;;;;-144.73;60.61;54194.25;4953445;28;20063;-71
2023/06/19 00:31:13;;;;;;;9.88;6.00;;;;;;;-144.73;61.00;54161.41;4953320;28;20027;-71
2023/06/19 00:33:40;;;;;;;10.30;6.30;;;;;;;-144.73;61.34;54206.56;4953688;28;20038;-71
2023/06/19 00:36:12;;;;;;;11.02;6.50;;;;;;;-144.73;60.98;54190.13;4955178;28;20038;-71
2023/06/19 00:38:38;;;;;;;8.27;5.53;;;;;;;-144.73;61.28;54173.72;4953686;28;20114;-71
2023/06/19 00:41:05;;;;;;;12.25;5.78;;;;;;;-144.73;61.08;54190.13;4956790;28;20058;-72
2023/06/19 00:43:31;;;;;;;11.85;6.05;;;;;;;-144.73;61.36;54227.09;4969446;28;20399;-70
2023/06/19 00:46:00;;;;;;;8.20;5.93;;;;;;;-144.73;60.95;54190.13;4953531;28;20019;-72
2023/06/19 00:48:30;;;;;;;7.65;5.82;;;;;;;-144.73;61.49;54145.00;4969402;28;20062;-72
2023/06/19 00:50:56;;;;;;;8.07;5.82;;;;;;;-144.73;61.62;54181.94;4953723;28;20023;-72
2023/06/19 00:53:23;;;;;;;13.52;6.63;;;;;;;-144.73;61.03;54177.81;4950697;28;20031;-71
2023/06/19 00:55:48;;;;;;;8.30;5.80;;;;;;;-144.73;60.52;54206.56;4954558;28;20030;-71
2023/06/19 00:58:15;;;;;;;7.03;5.72;;;;;;;-144.73;60.78;54202.44;4974399;28;20041;-72
2023/06/19 01:00:40;;;;;;;9.25;6.13;;;;;;;-144.73;60.87;54194.25;4973957;28;20033;-72
2023/06/19 01:03:06;;;;;;;9.95;5.97;;;;;;;-144.73;61.70;54210.66;4956624;28;20035;-72
2023/06/19 01:05:32;;;;;;;12.57;5.63;;;;;;;-144.73;62.42;54206.56;4974877;28;20043;-71
2023/06/19 01:08:09;;;;;;;11.68;6.32;;;;;;;-144.73;62.74;54177.81;4974530;28;20035;-70
2023/06/19 01:10:43;;;;;;;11.60;7.15;;;;;;;-144.73;61.68;54214.78;4956636;28;20045;-70
2023/06/19 01:13:36;;;;;;;8.73;6.38;;;;;;;-144.73;62.35;54222.97;4954108;28;20030;-71
2023/06/19 01:16:04;;;;;;;8.35;6.03;;;;;;;-144.73;62.75;54198.34;4952120;28;20085;-71
2023/06/19 01:18:31;;;;;;;6.80;5.03;;;;;;;-144.73;62.81;54192.19;4954152;28;20047;-71
2023/06/19 01:20:57;;;;;;;8.55;6.05;;;;;;;-144.73;61.39;54202.44;4956989;28;20027;-72
2023/06/19 01:23:22;;;;;;;11.25;6.15;;;;;;;-144.73;63.24;54145.00;4956253;28;20038;-71
2023/06/19 01:25:47;;;;;;;8.18;6.18;;;;;;;-144.73;63.22;54194.25;4954311;28;20023;-72
2023/06/19 01:28:13;;;;;;;9.30;6.38;;;;;;;-144.73;62.98;54173.72;4971974;28;20031;-71
2023/06/19 01:30:41;;;;;;;10.65;6.43;;;;;;;-144.73;63.49;54186.03;4973776;28;20589;-71
2023/06/19 01:33:14;;;;;;;13.77;6.20;;;;;;;-144.73;63.51;54190.13;4973085;28;20074;-70
2023/06/19 01:35:43;;;;;;;8.93;6.38;;;;;;;-144.73;62.87;54225.03;4953838;28;20031;-72
2023/06/19 01:38:09;;;;;;;9.65;6.55;;;;;;;-144.73;63.27;54194.25;4955321;28;20031;-72
2023/06/19 01:40:35;;;;;;;12.10;6.85;;;;;;;-144.73;63.72;54190.13;4955713;28;20374;-71
2023/06/19 01:43:01;;;;;;;8.20;6.15;;;;;;;-144.73;63.65;54188.09;4973850;28;20047;-71
2023/06/19 01:45:28;;;;;;;12.63;6.40;;;;;;;-144.73;63.97;54179.88;4959750;28;20027;-71
2023/06/19 01:47:54;;;;;;;12.48;6.55;;;;;;;-144.73;64.22;54173.72;4973850;28;20108;-71
2023/06/19 01:50:21;;;;;;;9.57;6.72;;;;;;;-144.73;64.38;54198.34;4956473;28;20026;-71
2023/06/19 01:52:47;;;;;;;8.75;6.55;;;;;;;-144.73;64.12;54181.94;4972361;28;20121;-71
2023/06/19 01:55:13;;;;;;;11.30;7.13;;;;;;;-144.73;64.62;54227.09;4980696;28;20057;-71
2023/06/19 01:57:38;;;;;;;16.48;6.70;;;;;;;-144.73;64.56;54181.94;4958903;28;20034;-71
2023/06/19 02:00:07;;;;;;;15.57;6.80;;;;;;;-144.73;64.52;54190.13;4976250;28;20082;-71
2023/06/19 02:02:33;;;;;;;11.00;6.28;;;;;;;-144.73;64.62;54186.03;4973884;28;20035;-71
2023/06/19 02:04:58;;;;;;;10.82;6.00;;;;;;;-144.73;64.96;54190.13;4971245;28;20085;-71
2023/06/19 02:07:24;;;;;;;11.63;6.30;;;;;;;-144.73;64.85;54161.41;4969892;28;20040;-72
2023/06/19 02:09:49;;;;;;;12.88;6.93;;;;;;;-144.73;65.00;54218.88;4951928;28;20030;-71
2023/06/19 02:12:14;;;;;;;11.73;6.70;;;;;;;-144.73;64.21;54173.72;4955622;28;20046;-71
2023/06/19 02:14:40;;;;;;;14.43;7.25;;;;;;;-144.73;63.51;54227.09;4956671;28;20047;-71
2023/06/19 02:17:05;;;;;;;14.00;7.35;;;;;;;-144.73;64.70;54202.44;4973176;28;20034;-71
2023/06/19 02:19:31;;;;;;;12.20;6.68;;;;;;;-144.73;65.05;54210.66;4973082;28;20034;-71
2023/06/19 02:21:56;;;;;;;14.13;7.57;;;;;;;-144.73;64.18;54214.78;4973209;28;20035;-72
2023/06/19 02:24:22;;;;;;;10.90;7.05;;;;;;;-144.73;65.08;54153.19;4956064;28;20069;-71
2023/06/19 02:26:47;;;;;;;8.68;7.30;;;;;;;-144.73;64.98;54194.25;4955562;28;20042;-71
2023/06/19 02:29:12;;;;;;;11.35;7.18;;;;;;;-144.73;65.25;54206.56;4973409;28;20031;-72
2023/06/19 02:31:38;;;;;;;11.10;6.60;;;;;;;-144.73;64.98;54200.41;4952187;28;20105;-71
2023/06/19 02:34:03;;;;;;;8.73;6.65;;;;;;;-144.73;64.88;54194.25;4955090;28;20023;-70
2023/06/19 02:36:29;;;;;;;11.40;6.78;;;;;;;-144.73;64.84;54181.94;4952716;28;20023;-71
2023/06/19 02:38:55;;;;;;;13.10;7.38;;;;;;;-144.73;64.87;54190.13;4955541;28;20115;-71
2023/06/19 02:41:20;;;;;;;9.80;6.72;;;;;;;-144.73;66.37;54177.81;4954897;28;20066;-71
2023/06/19 02:43:46;;;;;;;9.23;6.88;;;;;;;-144.73;65.85;54210.66;4955582;28;20029;-71
2023/06/19 02:46:12;;;;;;;9.50;7.15;;;;;;;-144.73;65.44;54190.13;4970023;28;20121;-71
2023/06/19 02:48:37;;;;;;;12.32;7.03;;;;;;;-144.73;65.27;54208.63;4953837;28;20095;-71
2023/06/19 02:51:03;;;;;;;15.40;8.00;;;;;;;-144.73;65.08;54194.25;4951023;28;20050;-71
2023/06/19 02:53:28;;;;;;;14.80;7.13;;;;;;;-144.73;64.86;54210.66;4955045;28;20031;-71
2023/06/19 02:55:53;;;;;;;11.82;7.03;;;;;;;-144.73;64.90;54210.66;4954902;28;20054;-71
2023/06/19 02:58:19;;;;;;;11.63;7.05;;;;;;;-144.73;66.03;54196.28;4954769;28;20034;-71
2023/06/19 03:00:45;;;;;;;15.00;7.40;;;;;;;-144.73;65.53;54192.19;4954449;28;20028;-71
2023/06/19 03:03:11;;;;;;;10.52;7.50;;;;;;;-144.73;65.77;54186.03;4953931;28;20043;-71
2023/06/19 03:05:36;;;;;;;13.98;7.55;;;;;;;-144.73;66.61;54194.25;4952626;28;20025;-71
2023/06/19 03:08:02;;;;;;;9.23;6.90;;;;;;;-144.73;66.47;54218.88;4954256;28;20039;-71
2023/06/19 03:10:27;;;;;;;12.65;7.35;;;;;;;-144.73;66.05;54222.97;4954645;28;20145;-72
2023/06/19 03:12:52;;;;;;;10.25;7.15;;;;;;;-144.73;67.19;54165.50;4954397;28;20154;-71
2023/06/19 03:15:18;;;;;;;9.77;7.13;;;;;;;-144.73;67.22;54165.50;4954747;28;20110;-71
2023/06/19 03:17:43;;;;;;;12.15;7.55;;;;;;;-144.73;66.00;54227.09;4954425;28;20504;-71
2023/06/19 03:20:12;;;;;;;12.98;7.25;;;;;;;-144.73;65.49;54198.34;4957906;28;20654;-70
2023/06/19 03:22:40;;;;;;;12.10;7.03;;;;;;;-144.73;66.60;54206.56;4954556;28;20031;-70
2023/06/19 03:25:06;;;;;;;10.57;7.50;;;;;;;-144.73;66.34;54210.66;4961343;28;20095;-71
2023/06/19 03:27:31;;;;;;;8.90;6.57;;;;;;;-144.73;66.42;54198.34;4963259;28;20117;-71
2023/06/19 03:29:57;;;;;;;14.18;7.85;;;;;;;-144.73;66.04;54210.66;4957808;28;20118;-70
2023/06/19 03:32:22;;;;;;;10.75;8.05;;;;;;;-144.73;65.64;54231.19;4961063;28;20022;-71
2023/06/19 03:34:48;;;;;;;13.80;7.75;;;;;;;-144.73;65.73;54192.19;4961491;28;20042;-71
2023/06/19 03:37:13;;;;;;;15.48;8.07;;;;;;;-144.73;66.27;54216.81;4958369;28;20058;-70
2023/06/19 03:39:38;;;;;;;12.50;7.68;;;;;;;-144.73;65.75;54190.13;4955221;28;20268;-70
2023/06/19 03:42:04;;;;;;;13.27;7.97;;;;;;;-144.73;67.22;54169.63;4954351;28;21141;-71
2023/06/19 03:44:30;;;;;;;14.00;7.35;;;;;;;-144.73;66.39;54194.25;4955042;28;20041;-70
2023/06/19 03:46:55;;;;;;;12.00;7.25;;;;;;;-144.73;66.71;54210.66;4954860;28;20027;-71
2023/06/19 03:49:20;;;;;;;11.60;7.60;;;;;;;-144.73;66.63;54218.88;4954562;28;20034;-71
2023/06/19 03:51:46;;;;;;;13.60;7.72;;;;;;;-144.73;66.54;54206.56;4951020;28;20038;-69
2023/06/19 03:54:11;;;;;;;8.77;7.15;;;;;;;-144.73;66.66;54196.28;4954897;28;20038;-70
2023/06/19 03:56:38;;;;;;;11.43;7.75;;;;;;;-144.73;66.76;54227.09;4954356;28;20027;-71
2023/06/19 03:59:03;;;;;;;13.52;7.88;;;;;;;-144.73;66.30;54235.28;4954253;28;20158;-72
2023/06/19 04:01:28;;;;;;;13.43;8.10;;;;;;;-144.73;66.20;54237.34;4960151;28;20125;-70
2023/06/19 04:03:54;;;;;;;11.73;7.30;;;;;;;-144.73;66.34;54210.66;4954107;28;20030;-73
2023/06/19 04:06:19;;;;;;;15.40;7.28;;;;;;;-144.73;66.21;54181.94;4954757;28;20034;-70
2023/06/19 04:08:44;;;;;;;14.23;7.32;;;;;;;-144.73;65.59;54218.88;4954078;28;20057;-71
2023/06/19 04:11:10;;;;;;;12.00;7.97;;;;;;;-144.73;65.69;54214.78;4953597;28;20045;-71
2023/06/19 04:13:35;;;;;;;11.60;8.18;;;;;;;-144.73;65.11;54210.66;4969740;28;20041;-71
2023/06/19 04:16:00;;;;;;;10.13;7.60;;;;;;;-144.73;65.77;54192.19;4954442;28;20053;-70
2023/06/19 04:18:27;;;;;;;11.95;7.78;;;;;;;-144.73;65.98;54235.28;4951436;28;20038;-71
2023/06/19 04:20:53;;;;;;;14.70;8.02;;;;;;;-144.73;66.63;54198.34;4960482;28;20033;-72
2023/06/19 04:23:18;;;;;;;14.27;8.20;;;;;;;-144.73;65.31;54169.63;4972679;28;20109;-71
2023/06/19 04:25:44;;;;;;;12.90;7.78;;;;;;;-144.73;66.09;54235.28;4954273;28;20078;-71
2023/06/19 04:28:09;;;;;;;11.65;7.68;;;;;;;-144.73;65.07;54169.63;4950870;28;20042;-71
2023/06/19 04:30:34;;;;;;;10.65;7.88;;;;;;;-144.73;64.80;54206.56;4953470;28;20061;-71
2023/06/19 04:33:00;;;;;;;12.00;8.00;;;;;;;-144.73;65.37;54216.81;4953372;28;20113;-70
2023/06/19 04:35:26;;;;;;;12.82;8.00;;;;;;;-144.73;65.16;54231.19;4970532;28;20029;-71
2023/06/19 04:37:53;;;;;;;13.63;7.57;;;;;;;-144.73;65.66;54206.56;4953683;28;20110;-72
2023/06/19 04:40:19;;;;;;;10.32;7.32;;;;;;;-144.73;65.61;54237.34;4953507;28;20015;-71
2023/06/19 04:42:44;;;;;;;9.60;8.18;;;;;;;-144.73;65.51;54214.78;4950717;28;20027;-71
2023/06/19 04:45:10;;;;;;;11.13;7.68;;;;;;;-144.73;65.97;54222.97;4951977;28;20118;-71
2023/06/19 04:47:36;;;;;;;11.18;7.40;;;;;;;-144.73;65.81;54239.41;4953320;28;20031;-72
2023/06/19 04:50:01;;;;;;;13.75;10.27;;;;;;;-144.73;66.17;54222.97;4953617;28;20019;-72
2023/06/19 04:52:27;;;;;;;13.77;9.02;;;;;;;-144.73;65.45;54212.72;4957874;28;20019;-72
2023/06/19 04:54:52;;;;;;;10.63;8.35;;;;;;;-144.73;66.30;54194.25;4950719;28;20030;-71
2023/06/19 04:57:17;;;;;;;11.88;7.63;;;;;;;-144.73;65.59;54214.78;4953931;28;20080;-72
2023/06/19 04:59:44;;;;;;;9.93;7.85;;;;;;;-144.73;65.40;54202.44;4956740;28;20026;-72
2023/06/19 05:02:10;;;;;;;11.38;8.30;;;;;;;-144.73;65.15;54227.09;4957971;28;20407;-71
2023/06/19 05:04:35;;;;;;;14.35;8.32;;;;;;;-144.73;66.04;54212.72;4948393;28;20023;-71
2023/06/19 05:07:01;;;;;;;11.75;7.80;;;;;;;-144.73;65.17;54210.66;4953428;28;20027;-71
2023/06/19 05:09:27;;;;;;;10.60;8.07;;;;;;;-144.73;65.33;54190.13;4966982;28;20051;-71
2023/06/19 05:11:52;;;;;;;9.32;7.70;;;;;;;-144.73;65.19;54186.03;4952802;28;20038;-72
2023/06/19 05:14:18;;;;;;;11.63;8.40;;;;;;;-144.73;65.25;54235.28;4958649;28;20053;-72
2023/06/19 05:16:44;;;;;;;15.55;8.35;;;;;;;-144.73;66.24;54194.25;4956201;28;20035;-71
2023/06/19 05:19:09;;;;;;;15.98;8.55;;;;;;;-144.73;65.93;54210.66;4961107;28;20018;-72
2023/06/19 05:21:34;;;;;;;12.70;8.63;;;;;;;-144.73;66.99;54169.63;4966795;28;20028;-72
2023/06/19 05:24:00;;;;;;;10.70;8.20;;;;;;;-144.73;66.47;54247.59;4968560;28;20118;-72
2023/06/19 05:26:26;;;;;;;11.43;8.15;;;;;;;-144.73;66.10;54218.88;4950082;28;20114;-72
2023/06/19 05:28:51;;;;;;;12.82;8.90;;;;;;;-144.73;66.41;54214.78;4953465;28;20026;-73
2023/06/19 05:31:18;;;;;;;20.10;9.05;;;;;;;-144.73;67.77;54210.66;4955494;28;20022;-71
2023/06/19 05:33:44;;;;;;;13.63;8.77;;;;;;;-144.73;67.96;54210.66;4955649;28;20023;-72
2023/06/19 05:36:09;;;;;;;16.75;9.82;;;;;;;-144.73;67.63;54210.66;4953378;28;20029;-72
2023/06/19 05:38:35;;;;;;;18.55;9.93;;;;;;;-144.73;68.17;54210.66;4952889;28;20027;-72
2023/06/19 05:41:02;;;;;;;21.23;8.77;;;;;;;-144.73;67.91;54194.25;4953171;28;20019;-72
2023/06/19 05:43:27;;;;;;;12.23;9.27;;;;;;;-144.73;68.40;54190.13;4972268;28;20089;-71
2023/06/19 05:45:54;;;;;;;11.40;9.05;;;;;;;-144.73;66.51;54214.78;4957390;28;20027;-72
2023/06/19 05:48:22;;;;;;;14.02;9.13;;;;;;;-144.73;65.91;54227.09;4953894;28;20169;-71
2023/06/19 05:50:48;;;;;;;13.95;9.45;;;;;;;-144.73;66.65;54251.72;4956034;28;20022;-71
2023/06/19 05:53:13;;;;;;;15.07;9.52;;;;;;;-144.73;66.17;54206.56;4961367;28;20043;-72
2023/06/19 05:55:39;;;;;;;17.65;8.57;;;;;;;-144.73;66.24;54218.88;4954616;28;20053;-71
2023/06/19 05:58:04;;;;;;;14.80;8.68;;;;;;;-144.73;66.85;54169.63;4956701;28;20089;-71
2023/06/19 06:00:30;;;;;;;21.00;8.82;;;;;;;-144.73;66.41;54222.97;4958947;28;20058;-70
2023/06/19 06:03:02;;;;;;;16.92;8.50;;;;;;;-144.73;66.90;54202.44;4955995;28;20035;-71
2023/06/19 06:05:27;;;;;;;;;;;;;;;-144.73;66.74;54200.41;4959836;28;20019;-71
2023/06/19 06:07:54;;;;;;;16.65;8.93;;;;;;;-144.73;66.24;54202.44;4956447;28;19969;-71
2023/06/19 06:10:20;;;;;;;21.23;9.88;;;;;;;-144.73;65.81;54186.03;4955769;28;20027;-71
2023/06/19 06:12:46;;;;;;;19.15;9.10;;;;;;;-144.73;66.05;54216.81;4969401;28;20050;-72
2023/06/19 06:15:11;;;;;;;19.70;9.55;;;;;;;-144.73;65.07;54192.19;4956436;28;20480;-71
2023/06/19 06:17:37;;;;;;;14.23;8.70;;;;;;;-144.73;64.55;54235.28;4960385;28;20035;-70
2023/06/19 06:20:06;;;;;;;13.70;9.25;;;;;;;-144.73;65.14;54181.94;4954100;28;20019;-71
2023/06/19 06:22:31;;;;;;;25.10;9.60;;;;;;;-144.73;66.22;54198.34;4956226;28;20055;-71
2023/06/19 06:24:57;;;;;;;19.48;9.23;;;;;;;-144.73;70.50;54169.63;4956027;28;20061;-70
2023/06/19 06:27:22;;;;;;;21.75;9.98;;;;;;;-144.73;70.08;54186.03;4955515;28;20155;-71
2023/06/19 06:29:48;;;;;;;18.63;9.73;;;;;;;-144.73;73.66;54183.97;4973668;28;20070;-71
2023/06/19 06:32:13;;;;;;;22.77;10.77;;;;;;;-144.73;79.22;54194.25;4955339;28;20514;-69
2023/06/19 06:34:38;;;;;;;18.38;9.77;;;;;;;-144.73;77.86;54210.66;4956228;28;20022;-71
2023/06/19 06:37:04;;;;;;;20.25;9.50;;;;;;;-144.73;79.58;54222.97;4954954;28;20035;-70
2023/06/19 06:39:29;;;;;;;23.98;9.52;;;;;;;-144.73;79.38;54218.88;4961815;28;20029;-71
2023/06/19 06:41:54;;;;;;;14.27;9.50;;;;;;;-144.73;81.26;54196.28;4954964;28;20035;-71
2023/06/19 06:44:20;;;;;;;15.13;9.20;;;;;;;-144.73;81.67;54227.09;4955919;28;20034;-70
2023/06/19 06:46:45;;;;;;;20.05;10.25;;;;;;;-144.73;80.31;54202.44;4955986;28;20031;-71
2023/06/19 06:49:11;;;;;;;14.18;9.65;;;;;;;-144.73;81.36;54196.28;4955899;28;20023;-72
2023/06/19 06:51:37;;;;;;;13.02;10.18;;;;;;;-144.73;79.94;54239.41;4954841;28;20022;-72
2023/06/19 06:54:02;;;;;;;14.07;9.93;;;;;;;-144.73;83.62;54186.03;4954831;28;20019;-72
2023/06/19 06:56:27;;;;;;;21.08;10.60;;;;;;;-144.73;82.76;54208.63;4954429;28;20023;-72
2023/06/19 06:58:53;;;;;;;17.00;10.93;;;;;;;-144.73;83.98;54214.78;4954973;28;20015;-72
2023/06/19 07:01:18;;;;;;;17.73;10.57;;;;;;;-144.73;89.11;54190.13;4953071;28;20035;-72
2023/06/19 07:03:43;;;;;;;23.15;10.60;;;;;;;-144.73;91.56;54206.56;4963332;28;20037;-72
2023/06/19 07:06:09;;;;;;;23.17;11.60;;;;;;;-144.73;91.83;54214.78;4960525;28;20046;-71
2023/06/19 07:08:34;;;;;;;14.13;10.73;;;;;;;-144.73;92.30;54208.63;4960763;28;20127;-72
2023/06/19 07:11:00;;;;;;;17.77;11.30;;;;;;;-144.73;95.36;54284.56;4963900;28;20022;-72
2023/06/19 07:13:25;;;;;;;17.40;10.43;;;;;;;-144.73;92.76;54181.94;4959725;28;20043;-72
2023/06/19 07:15:50;;;;;;;26.95;11.98;;;;;;;-144.73;93.64;54259.91;4971041;28;20058;-71
2023/06/19 07:18:16;;;;;;;23.73;11.13;;;;;;;-144.73;95.42;54239.41;4953220;28;20081;-71
2023/06/19 07:20:41;;;;;;;25.05;11.20;;;;;;;-144.73;93.01;54222.97;4953646;28;20158;-71
2023/06/19 07:23:07;;;;;;;32.50;11.13;;;;;;;-144.73;91.47;54186.03;4953884;28;20407;-71
2023/06/19 07:25:33;;;;;;;25.77;11.40;;;;;;;-144.73;89.13;54266.06;4970169;28;20023;-72
2023/06/19 07:28:00;;;;;;;16.88;10.77;;;;;;;-144.73;91.63;54202.44;4954143;28;20031;-74
2023/06/19 07:30:25;;;;;;;19.42;10.85;;;;;;;-144.73;90.77;54247.59;4946989;28;20023;-76
2023/06/19 07:32:51;;;;;;;13.57;10.43;;;;;;;-144.73;88.77;54264.03;4953935;28;20037;-76
2023/06/19 07:35:16;;;;;;;24.65;11.18;;;;;;;-144.73;87.44;54194.25;4956177;28;20026;-80
2023/06/19 07:37:42;;;;;;;15.85;10.00;;;;;;;-144.73;86.90;54243.50;4952999;28;20049;-77
2023/06/19 07:40:08;;;;;;;13.35;10.05;;;;;;;-144.73;87.08;54243.50;4954055;28;20050;-77
2023/06/19 07:42:33;;;;;;;29.50;11.25;;;;;;;-144.73;84.76;54169.63;4969738;28;20034;-76
2023/06/19 07:44:59;;;;;;;21.98;10.38;;;;;;;-144.73;81.89;54247.59;4956313;28;20022;-78
2023/06/19 07:47:26;;;;;;;18.50;10.90;;;;;;;-144.73;83.36;54210.66;4954189;28;20027;-76
2023/06/19 07:49:51;;;;;;;22.67;10.10;;;;;;;-144.73;85.77;54235.28;4954800;28;20014;-78
2023/06/19 07:52:17;;;;;;;15.15;10.10;;;;;;;-144.73;84.18;54218.88;4953486;28;20391;-76
2023/06/19 07:54:53;;;;;;;16.80;11.05;;;;;;;-144.73;80.85;54202.44;4954490;28;20061;-77
2023/06/19 07:57:19;;;;;;;17.20;10.13;;;;;;;-144.73;79.46;54190.13;4969563;28;20114;-76
2023/06/19 07:59:46;;;;;;;15.60;10.73;;;;;;;-144.73;79.22;54214.78;4953029;28;20487;-76
2023/06/19 08:02:12;;;;;;;15.88;10.13;;;;;;;-144.73;76.12;54210.66;4950101;28;20069;-77
2023/06/19 08:04:37;;;;;;;20.40;11.60;;;;;;;-144.73;79.56;54214.78;4953645;28;20046;-76
2023/06/19 08:07:03;;;;;;;20.33;11.02;;;;;;;-144.73;78.76;54179.88;4953700;28;20047;-77
2023/06/19 08:09:28;;;;;;;23.50;11.80;;;;;;;-144.73;76.54;54231.19;4954357;28;20033;-80
2023/06/19 08:11:54;;;;;;;17.80;10.25;;;;;;;-144.73;73.04;54177.81;4952993;28;20162;-77
2023/06/19 08:14:19;;;;;;;26.90;12.25;;;;;;;-144.73;69.85;54202.44;4961240;28;20019;-77
2023/06/19 08:16:45;;;;;;;15.50;10.88;;;;;;;-144.73;70.07;54157.31;4969353;28;20035;-76
2023/06/19 08:19:10;;;;;;;18.45;10.45;;;;;;;-144.73;69.71;54179.88;4962377;28;20057;-80
2023/06/19 08:21:36;;;;;;;12.10;9.65;;;;;;;-144.73;68.62;54145.00;4960920;28;20023;-75
2023/06/19 08:24:02;;;;;;;15.02;10.25;;;;;;;-144.73;68.23;54181.94;4956878;28;20047;-78
2023/06/19 08:26:28;;;;;;;21.55;11.13;;;;;;;-144.73;67.59;54214.78;4970801;28;20029;-77
2023/06/19 08:28:53;;;;;;;30.67;11.02;;;;;;;-144.73;67.49;54186.03;4953933;28;20015;-76
2023/06/19 08:31:19;;;;;;;13.23;10.82;;;;;;;-144.73;65.17;54202.44;4969102;28;20031;-75
2023/06/19 08:33:48;;;;;;;14.77;9.82;;;;;;;-144.73;65.53;54165.50;4956016;28;20110;-75
2023/06/19 08:36:14;;;;;;;18.55;10.20;;;;;;;-144.73;65.46;54218.88;4969844;28;20023;-77
2023/06/19 08:38:40;;;;;;;16.05;10.57;;;;;;;-144.73;66.09;54155.25;4961126;28;20046;-75
2023/06/19 08:41:05;;;;;;;14.85;10.55;;;;;;;-144.73;63.58;54175.78;4963199;28;20041;-79
2023/06/19 08:43:31;;;;;;;24.05;10.73;;;;;;;-144.73;63.39;54149.09;4952845;28;20059;-76
2023/06/19 08:46:11;;;;;;;22.70;9.70;;;;;;;-144.73;61.11;54157.31;4952441;28;20015;-76
2023/06/19 08:48:37;;;;;;;15.05;9.85;;;;;;;-144.73;61.82;54134.72;4952215;28;20039;-75
2023/06/19 08:51:04;;;;;;;13.25;9.10;;;;;;;-144.73;60.23;54157.31;4953578;28;20015;-77
2023/06/19 08:53:33;;;;;;;16.83;9.32;;;;;;;-144.73;58.70;54202.44;4950973;28;20031;-76
2023/06/19 08:55:58;;;;;;;16.13;9.82;;;;;;;-144.73;57.77;54128.56;4953677;28;20026;-78
2023/06/19 08:58:24;;;;;;;22.55;9.40;;;;;;;-144.73;56.30;54157.31;4952632;28;20118;-76
2023/06/19 09:00:49;;;;;;;12.30;9.65;;;;;;;-144.73;56.83;54165.50;4952818;28;20026;-76
2023/06/19 09:03:21;;;;;;;13.93;9.95;;;;;;;-144.73;56.72;54179.88;4952727;28;20094;-78
2023/06/19 09:05:49;;;;;;;20.20;10.43;;;;;;;-144.73;55.99;54177.81;4948147;28;20487;-76
2023/06/19 09:08:18;;;;;;;11.10;9.48;;;;;;;-144.73;56.30;54157.31;4952643;28;20039;-76
2023/06/19 09:10:57;;;;;;;14.18;10.32;;;;;;;-144.73;56.72;54163.47;4966658;28;20027;-78
2023/06/19 09:13:22;;;;;;;17.40;9.63;;;;;;;-144.73;56.49;54134.72;4958457;28;20055;-76
2023/06/19 09:15:50;;;;;;;16.88;9.40;;;;;;;-144.73;55.28;54095.72;4965532;28;20037;-77
2023/06/19 09:18:15;;;;;;;14.50;9.48;;;;;;;-144.73;55.24;54194.25;4962562;28;20041;-76
2023/06/19 09:20:44;;;;;;;12.80;9.18;;;;;;;-144.73;56.32;54177.81;4967627;28;20026;-76
2023/06/19 09:23:10;;;;;;;16.67;10.57;;;;;;;-144.73;55.09;54181.94;4960919;28;20058;-76
2023/06/19 09:25:57;;;;;;;16.35;9.77;;;;;;;-144.73;54.81;54153.19;4955713;28;20084;-79
2023/06/19 09:28:27;;;;;;;13.75;10.00;;;;;;;-144.73;56.62;54149.09;4955659;28;20030;-77
2023/06/19 09:30:58;;;;;;;12.70;8.98;;;;;;;-144.73;54.97;54099.84;4956107;28;20508;-77
2023/06/19 09:33:29;;;;;;;11.35;9.55;;;;;;;-144.73;53.07;54147.03;4972519;28;20045;-76
2023/06/19 09:35:56;;;;;;;;;;;;;;;-144.73;52.17;54124.47;4973549;28;20022;-76
2023/06/19 09:38:25;;;;;;;17.45;9.45;;;;;;;-144.73;50.71;54075.22;4955753;28;19922;-76
2023/06/19 09:40:52;;;;;;;19.42;10.15;;;;;;;-144.73;51.11;54108.03;4955843;28;20034;-76
2023/06/19 09:43:25;;;;;;;14.18;9.13;;;;;;;-144.73;52.93;54145.00;4956217;28;20058;-76
2023/06/19 09:45:55;;;;;;;15.85;8.95;;;;;;;-144.73;55.63;54145.00;4949190;28;20019;-80
2023/06/19 09:48:32;;;;;;;12.88;9.25;;;;;;;-144.73;53.36;54128.56;4955383;28;20042;-79
2023/06/19 09:51:09;;;;;;;18.15;9.68;;;;;;;-144.73;53.35;54134.72;4956599;28;20026;-80
2023/06/19 09:53:35;;;;;;;21.85;9.38;;;;;;;-144.73;53.51;54145.00;4956543;28;20089;-76
2023/06/19 09:56:00;;;;;;;16.77;9.18;;;;;;;-144.73;51.50;54153.19;4957712;28;20022;-76
2023/06/19 09:58:28;;;;;;;13.10;9.43;;;;;;;-144.73;52.52;54099.84;4956983;28;20035;-80
2023/06/19 10:00:55;;;;;;;18.90;10.02;;;;;;;-144.73;53.33;54145.00;4959326;28;20112;-77
2023/06/19 10:03:20;;;;;;;19.75;9.90;;;;;;;-144.73;53.24;54149.09;4958925;28;20035;-78
2023/06/19 10:05:46;;;;;;;34.40;10.25;;;;;;;-144.73;53.64;54122.41;4956769;28;20025;-76
2023/06/19 10:08:12;;;;;;;15.52;10.30;;;;;;;-144.73;53.89;54124.47;4956236;28;20090;-78
2023/06/19 10:10:47;;;;;;;10.82;9.68;;;;;;;-144.73;53.30;54153.19;4973340;28;20035;-77
2023/06/19 10:13:14;;;;;;;18.02;10.07;;;;;;;-144.73;53.67;54167.56;4955739;28;20037;-76
2023/06/19 10:15:44;;;;;;;14.98;9.60;;;;;;;-144.73;52.84;54145.00;4956404;28;20151;-76
2023/06/19 10:18:18;;;;;;;17.83;9.52;;;;;;;-144.73;51.84;54099.84;4955707;28;20031;-76
2023/06/19 10:20:45;;;;;;;14.50;9.63;;;;;;;-144.73;50.80;54167.56;4955701;28;20070;-76
2023/06/19 10:23:18;;;;;;;17.55;9.85;;;;;;;-144.73;51.79;54124.47;4955798;28;20027;-76
2023/06/19 10:25:45;;;;;;;23.52;10.23;;;;;;;-144.73;53.10;54169.63;4956394;28;20030;-77
2023/06/19 10:28:36;;;;;;;13.30;10.48;;;;;;;-144.73;52.42;54153.19;4954397;28;20054;-77
2023/06/19 10:31:07;;;;;;;20.65;9.82;;;;;;;-144.73;52.51;54149.09;4955601;28;20026;-79
2023/06/19 10:33:36;;;;;;;27.42;10.52;;;;;;;-144.73;51.46;54122.41;4970818;28;20023;-76
2023/06/19 10:36:14;;;;;;;18.13;10.23;;;;;;;-144.73;50.48;54153.19;4972921;28;20031;-81
2023/06/19 10:38:39;;;;;;;15.07;9.90;;;;;;;-144.73;50.11;54157.31;4955024;28;20057;-80
2023/06/19 10:41:05;;;;;;;18.05;10.40;;;;;;;-144.73;49.36;54103.94;4955126;28;20466;-78
2023/06/19 10:43:32;;;;;;;17.65;10.18;;;;;;;-144.73;48.27;54099.84;4974397;28;20039;-78
2023/06/19 10:45:58;;;;;;;12.00;9.65;;;;;;;-144.73;48.18;54108.03;4955503;28;20022;-77
2023/06/19 10:48:24;;;;;;;15.75;10.10;;;;;;;-144.73;47.11;54079.31;4972171;28;20046;-82
2023/06/19 10:50:51;;;;;;;16.50;9.80;;;;;;;-144.73;48.16;54161.41;4954858;28;20027;-78
2023/06/19 10:53:32;;;;;;;15.05;10.48;;;;;;;-144.73;50.48;54165.50;4954895;28;20050;-81
2023/06/19 10:56:02;;;;;;;14.80;9.55;;;;;;;-144.73;50.06;54153.19;4969014;28;20076;-77
2023/06/19 10:58:28;;;;;;;13.48;10.52;;;;;;;-144.73;50.20;54116.25;4952733;28;20443;-76
2023/06/19 11:00:54;;;;;;;16.25;10.35;;;;;;;-144.73;49.73;54108.03;4972257;28;20018;-73
2023/06/19 11:03:20;;;;;;;13.75;9.63;;;;;;;-144.73;47.64;54112.16;4956886;28;20031;-73
2023/06/19 11:05:47;;;;;;;24.90;10.73;;;;;;;-144.73;44.65;54120.34;4956844;28;20048;-74
2023/06/19 11:08:20;;;;;;;16.25;10.63;;;;;;;-144.73;45.38;54097.78;4956038;28;20031;-74